Overview Statistics Trail Chart Weather Telemetry Raw packets
 

This is the latest recevied weather packets stored in our database for station/object KC0OOO-WX. If no packets are shown the sender has not sent any weather packets the latest 10 day(s).

<< 20 21 22 23 24 25 26 >>
Time Temp. Humidity Pressure Rain* Wind** Luminosity Snow
1777510502 15.56° C 17% 1017.6 hPa 0 mm - - -
1777509902 15.56° C 15% 1017.6 hPa 0 mm - - -
1777509302 16.11° C 17% 1017.6 hPa 0 mm - - -
1777508702 16.11° C 16% 1017.3 hPa 0 mm - - -
1777508102 16.11° C 16% 1017.3 hPa 0 mm - - -
1777507502 16.67° C 15% 1017.3 hPa 0 mm - - -
1777506902 16.67° C 15% 1017.3 hPa 0 mm - - -
1777506302 16.67° C 16% 1017.3 hPa 0 mm - - -
1777505702 17.22° C 15% 1017.3 hPa 0 mm - - -
1777505102 17.22° C 15% 1017.3 hPa 0 mm - - -
1777504502 17.78° C 16% 1017.3 hPa 0 mm - - -
1777503908 17.22° C 19% 1017.3 hPa 0 mm - - -
1777503302 18.33° C 15% 1017.3 hPa 0 mm - - -
1777502702 17.78° C 17% 1017.3 hPa 0 mm - - -
1777502102 17.78° C 17% 1017.3 hPa 0 mm - - -
1777501502 17.78° C 16% 1017.3 hPa 0 mm - - -
1777500902 18.89° C 15% 1017.3 hPa 0 mm - - -
1777500272 18.33° C 19% 1017.3 hPa 0 mm - - -
1777499672 19.44° C 14% 1017.3 hPa 0 mm - - -
1777499072 18.89° C 15% 1017.9 hPa 0 mm - - -
1777498472 18.33° C 18% 1017.9 hPa 0 mm - - -
1777497872 17.78° C 16% 1017.9 hPa 0 mm - - -
1777497272 17.22° C 16% 1017.9 hPa 0 mm - - -
1777496672 17.78° C 17% 1017.9 hPa 0 mm - - -
1777496072 17.78° C 15% 1018.3 hPa 0 mm - - -

* Rain latest hour (hover to see other rain measurements)
** Current wind speed in m/s (hover to see current wind gust speed)